Terminal Aerodrome Forecast
Issued by NWS Corpus Christi, TX

Home | Current Version | Previous Version | Text Only | Print | Product List | Glossary On
Versions: 1 2 3 4 5 6 7 8 9 10 11 12 13 14 15 16 17
000
FTUS44 KCRP 011726
TAFVCT
TAF
KVCT 011726Z 0118/0218 18014KT P6SM VCTS SCT030CB BKN150
      TEMPO 0118/0122 VRB15G28KT 2SM TSRA BR BKN020CB
     FM012200 17015KT P6SM SCT035 SCT150
     FM020100 14007KT P6SM FEW020 SCT150
      TEMPO 0209/0212 4SM BR BKN012
     FM021600 17014KT P6SM SCT200=

USA.gov is the U.S. government's official web portal to all federal, state and local government web resources and services.